sensor_id;sensor_type;location;lat;lon;timestamp;temperature;humidity
11772;DHT22;12556;55.748;13.194;2022-08-14T00:00:49;18.20;99.90
11772;DHT22;12556;55.748;13.194;2022-08-14T00:03:20;18.20;99.90
11772;DHT22;12556;55.748;13.194;2022-08-14T00:05:48;18.20;99.90
11772;DHT22;12556;55.748;13.194;2022-08-14T00:08:16;18.20;99.90
11772;DHT22;12556;55.748;13.194;2022-08-14T00:10:43;18.20;99.90
11772;DHT22;12556;55.748;13.194;2022-08-14T00:13:11;18.10;99.90
11772;DHT22;12556;55.748;13.194;2022-08-14T00:15:40;18.10;99.90
11772;DHT22;12556;55.748;13.194;2022-08-14T00:18:09;18.10;99.90
11772;DHT22;12556;55.748;13.194;2022-08-14T00:20:38;18.10;99.90
11772;DHT22;12556;55.748;13.194;2022-08-14T00:23:07;18.10;99.90
11772;DHT22;12556;55.748;13.194;2022-08-14T00:25:36;18.10;99.90
11772;DHT22;12556;55.748;13.194;2022-08-14T00:28:03;18.10;99.90
11772;DHT22;12556;55.748;13.194;2022-08-14T00:30:30;18.00;99.90
11772;DHT22;12556;55.748;13.194;2022-08-14T00:32:57;18.00;99.90
11772;DHT22;12556;55.748;13.194;2022-08-14T00:35:24;18.00;99.90
11772;DHT22;12556;55.748;13.194;2022-08-14T00:37:51;18.00;99.90
11772;DHT22;12556;55.748;13.194;2022-08-14T00:40:19;18.00;99.90
11772;DHT22;12556;55.748;13.194;2022-08-14T00:42:48;18.00;99.90
11772;DHT22;12556;55.748;13.194;2022-08-14T00:45:16;18.00;99.90
11772;DHT22;12556;55.748;13.194;2022-08-14T00:47:45;18.00;99.90
11772;DHT22;12556;55.748;13.194;2022-08-14T00:50:14;17.90;99.90
11772;DHT22;12556;55.748;13.194;2022-08-14T00:52:43;17.90;99.90
11772;DHT22;12556;55.748;13.194;2022-08-14T00:55:11;17.90;99.90
11772;DHT22;12556;55.748;13.194;2022-08-14T00:57:40;17.90;99.90
11772;DHT22;12556;55.748;13.194;2022-08-14T01:00:12;17.90;99.90
11772;DHT22;12556;55.748;13.194;2022-08-14T01:02:40;17.80;99.90
11772;DHT22;12556;55.748;13.194;2022-08-14T01:05:08;17.80;99.90
11772;DHT22;12556;55.748;13.194;2022-08-14T01:07:49;17.80;99.90
11772;DHT22;12556;55.748;13.194;2022-08-14T01:10:17;17.80;99.90
11772;DHT22;12556;55.748;13.194;2022-08-14T01:12:44;17.80;99.90
11772;DHT22;12556;55.748;13.194;2022-08-14T01:15:15;17.80;99.90
11772;DHT22;12556;55.748;13.194;2022-08-14T01:17:46;17.80;99.90
11772;DHT22;12556;55.748;13.194;2022-08-14T01:20:31;17.70;99.90
11772;DHT22;12556;55.748;13.194;2022-08-14T01:23:17;17.70;99.90
11772;DHT22;12556;55.748;13.194;2022-08-14T01:25:45;17.60;99.90
11772;DHT22;12556;55.748;13.194;2022-08-14T01:28:12;17.60;99.90
11772;DHT22;12556;55.748;13.194;2022-08-14T01:30:39;17.50;99.90
11772;DHT22;12556;55.748;13.194;2022-08-14T01:33:07;17.60;99.90
11772;DHT22;12556;55.748;13.194;2022-08-14T01:35:36;17.50;99.90
11772;DHT22;12556;55.748;13.194;2022-08-14T01:38:04;17.50;99.90
11772;DHT22;12556;55.748;13.194;2022-08-14T01:40:32;17.50;99.90
11772;DHT22;12556;55.748;13.194;2022-08-14T01:42:59;17.50;99.90
11772;DHT22;12556;55.748;13.194;2022-08-14T01:45:26;17.40;99.90
11772;DHT22;12556;55.748;13.194;2022-08-14T01:47:53;17.40;99.90
11772;DHT22;12556;55.748;13.194;2022-08-14T01:50:21;17.40;99.90
11772;DHT22;12556;55.748;13.194;2022-08-14T01:52:48;17.30;99.90
11772;DHT22;12556;55.748;13.194;2022-08-14T01:55:15;17.30;99.90
11772;DHT22;12556;55.748;13.194;2022-08-14T01:57:44;17.30;99.90
11772;DHT22;12556;55.748;13.194;2022-08-14T02:00:12;17.20;99.90
11772;DHT22;12556;55.748;13.194;2022-08-14T02:02:43;17.20;99.90
11772;DHT22;12556;55.748;13.194;2022-08-14T02:05:11;17.20;99.90
11772;DHT22;12556;55.748;13.194;2022-08-14T02:07:38;17.10;99.90
11772;DHT22;12556;55.748;13.194;2022-08-14T02:10:06;17.10;99.90
11772;DHT22;12556;55.748;13.194;2022-08-14T02:12:34;17.10;99.90
11772;DHT22;12556;55.748;13.194;2022-08-14T02:15:02;17.00;99.90
11772;DHT22;12556;55.748;13.194;2022-08-14T02:17:32;17.00;99.90
11772;DHT22;12556;55.748;13.194;2022-08-14T02:19:59;17.00;99.90
11772;DHT22;12556;55.748;13.194;2022-08-14T02:22:27;16.90;99.90
11772;DHT22;12556;55.748;13.194;2022-08-14T02:24:53;16.90;99.90
11772;DHT22;12556;55.748;13.194;2022-08-14T02:27:20;16.90;99.90
11772;DHT22;12556;55.748;13.194;2022-08-14T02:29:47;16.90;99.90
11772;DHT22;12556;55.748;13.194;2022-08-14T02:32:16;16.80;99.90
11772;DHT22;12556;55.748;13.194;2022-08-14T02:34:43;16.80;99.90
11772;DHT22;12556;55.748;13.194;2022-08-14T02:37:10;16.70;99.90
11772;DHT22;12556;55.748;13.194;2022-08-14T02:39:40;16.70;99.90
11772;DHT22;12556;55.748;13.194;2022-08-14T02:42:09;16.60;99.90
11772;DHT22;12556;55.748;13.194;2022-08-14T02:44:37;16.60;99.90
11772;DHT22;12556;55.748;13.194;2022-08-14T02:47:04;16.60;99.90
11772;DHT22;12556;55.748;13.194;2022-08-14T02:49:34;16.60;99.90
11772;DHT22;12556;55.748;13.194;2022-08-14T02:52:03;16.50;99.90
11772;DHT22;12556;55.748;13.194;2022-08-14T02:54:30;16.50;99.90
11772;DHT22;12556;55.748;13.194;2022-08-14T02:56:59;16.50;99.90
11772;DHT22;12556;55.748;13.194;2022-08-14T02:59:28;16.50;99.90
11772;DHT22;12556;55.748;13.194;2022-08-14T03:01:56;16.50;99.90
11772;DHT22;12556;55.748;13.194;2022-08-14T03:04:23;16.50;99.90
11772;DHT22;12556;55.748;13.194;2022-08-14T03:06:55;16.50;99.90
11772;DHT22;12556;55.748;13.194;2022-08-14T03:09:22;16.50;99.90
11772;DHT22;12556;55.748;13.194;2022-08-14T03:11:49;16.40;99.90
11772;DHT22;12556;55.748;13.194;2022-08-14T03:14:16;16.40;99.90
11772;DHT22;12556;55.748;13.194;2022-08-14T03:16:45;16.40;99.90
11772;DHT22;12556;55.748;13.194;2022-08-14T03:19:14;16.40;99.90
11772;DHT22;12556;55.748;13.194;2022-08-14T03:21:40;16.30;99.90
11772;DHT22;12556;55.748;13.194;2022-08-14T03:24:09;16.30;99.90
11772;DHT22;12556;55.748;13.194;2022-08-14T03:26:38;16.30;99.90
11772;DHT22;12556;55.748;13.194;2022-08-14T03:29:05;16.30;99.90
11772;DHT22;12556;55.748;13.194;2022-08-14T03:31:33;16.30;99.90
11772;DHT22;12556;55.748;13.194;2022-08-14T03:34:05;16.30;99.90
11772;DHT22;12556;55.748;13.194;2022-08-14T03:36:33;16.30;99.90
11772;DHT22;12556;55.748;13.194;2022-08-14T03:39:01;16.30;99.90
11772;DHT22;12556;55.748;13.194;2022-08-14T03:41:30;16.30;99.90
11772;DHT22;12556;55.748;13.194;2022-08-14T03:43:58;16.30;99.90
11772;DHT22;12556;55.748;13.194;2022-08-14T03:46:28;16.30;99.90
11772;DHT22;12556;55.748;13.194;2022-08-14T03:48:55;16.30;99.90
11772;DHT22;12556;55.748;13.194;2022-08-14T03:51:23;16.30;99.90
11772;DHT22;12556;55.748;13.194;2022-08-14T03:53:54;16.30;99.90
11772;DHT22;12556;55.748;13.194;2022-08-14T03:56:22;16.20;99.90
11772;DHT22;12556;55.748;13.194;2022-08-14T03:58:54;16.30;99.90
11772;DHT22;12556;55.748;13.194;2022-08-14T04:01:22;16.20;99.90
11772;DHT22;12556;55.748;13.194;2022-08-14T04:03:51;16.30;99.90
11772;DHT22;12556;55.748;13.194;2022-08-14T04:06:19;16.30;99.90
11772;DHT22;12556;55.748;13.194;2022-08-14T04:08:47;16.20;99.90
11772;DHT22;12556;55.748;13.194;2022-08-14T04:11:15;16.20;99.90
11772;DHT22;12556;55.748;13.194;2022-08-14T04:13:43;16.20;99.90
11772;DHT22;12556;55.748;13.194;2022-08-14T04:16:14;16.20;99.90
11772;DHT22;12556;55.748;13.194;2022-08-14T04:18:44;16.30;99.90
11772;DHT22;12556;55.748;13.194;2022-08-14T04:21:13;16.40;99.90
11772;DHT22;12556;55.748;13.194;2022-08-14T04:23:40;16.40;99.90
11772;DHT22;12556;55.748;13.194;2022-08-14T04:26:09;16.40;99.90
11772;DHT22;12556;55.748;13.194;2022-08-14T04:28:37;16.50;99.90
11772;DHT22;12556;55.748;13.194;2022-08-14T04:31:05;16.50;99.90
11772;DHT22;12556;55.748;13.194;2022-08-14T04:33:33;16.60;99.90
11772;DHT22;12556;55.748;13.194;2022-08-14T04:36:01;16.60;99.90
11772;DHT22;12556;55.748;13.194;2022-08-14T04:38:28;16.70;99.90
11772;DHT22;12556;55.748;13.194;2022-08-14T04:41:13;16.70;99.90
11772;DHT22;12556;55.748;13.194;2022-08-14T04:43:57;16.70;99.90
11772;DHT22;12556;55.748;13.194;2022-08-14T04:46:25;16.70;99.90
11772;DHT22;12556;55.748;13.194;2022-08-14T04:48:54;16.80;99.90
11772;DHT22;12556;55.748;13.194;2022-08-14T04:51:21;16.90;99.90
11772;DHT22;12556;55.748;13.194;2022-08-14T04:53:50;16.90;99.90
11772;DHT22;12556;55.748;13.194;2022-08-14T04:56:20;17.00;99.90
11772;DHT22;12556;55.748;13.194;2022-08-14T04:58:48;17.00;99.90
11772;DHT22;12556;55.748;13.194;2022-08-14T05:01:15;17.10;99.90
11772;DHT22;12556;55.748;13.194;2022-08-14T05:03:42;17.10;99.90
11772;DHT22;12556;55.748;13.194;2022-08-14T05:06:11;17.20;99.90
11772;DHT22;12556;55.748;13.194;2022-08-14T05:08:39;17.30;99.90
11772;DHT22;12556;55.748;13.194;2022-08-14T05:11:08;17.30;99.90
11772;DHT22;12556;55.748;13.194;2022-08-14T05:13:37;17.40;99.90
11772;DHT22;12556;55.748;13.194;2022-08-14T05:16:05;17.50;99.90
11772;DHT22;12556;55.748;13.194;2022-08-14T05:18:35;17.60;99.90
11772;DHT22;12556;55.748;13.194;2022-08-14T05:21:05;17.70;99.90
11772;DHT22;12556;55.748;13.194;2022-08-14T05:23:35;17.90;99.90
11772;DHT22;12556;55.748;13.194;2022-08-14T05:26:03;18.00;99.90
11772;DHT22;12556;55.748;13.194;2022-08-14T05:28:32;18.20;99.90
11772;DHT22;12556;55.748;13.194;2022-08-14T05:31:01;18.30;99.90
11772;DHT22;12556;55.748;13.194;2022-08-14T05:33:29;18.50;99.90
11772;DHT22;12556;55.748;13.194;2022-08-14T05:35:58;18.60;99.90
11772;DHT22;12556;55.748;13.194;2022-08-14T05:38:28;18.80;99.90
11772;DHT22;12556;55.748;13.194;2022-08-14T05:40:59;19.00;99.90
11772;DHT22;12556;55.748;13.194;2022-08-14T05:43:27;19.10;99.90
11772;DHT22;12556;55.748;13.194;2022-08-14T05:45:53;19.30;99.90
11772;DHT22;12556;55.748;13.194;2022-08-14T05:48:20;19.50;99.90
11772;DHT22;12556;55.748;13.194;2022-08-14T05:50:47;19.60;99.90
11772;DHT22;12556;55.748;13.194;2022-08-14T05:53:14;19.80;99.90
11772;DHT22;12556;55.748;13.194;2022-08-14T05:55:41;19.90;99.90
11772;DHT22;12556;55.748;13.194;2022-08-14T05:58:09;20.00;99.90
11772;DHT22;12556;55.748;13.194;2022-08-14T06:00:38;20.20;99.90
11772;DHT22;12556;55.748;13.194;2022-08-14T06:03:07;20.30;99.90
11772;DHT22;12556;55.748;13.194;2022-08-14T06:05:35;20.40;99.90
11772;DHT22;12556;55.748;13.194;2022-08-14T06:08:02;20.60;99.90
11772;DHT22;12556;55.748;13.194;2022-08-14T06:10:30;20.70;99.90
11772;DHT22;12556;55.748;13.194;2022-08-14T06:12:57;20.90;99.90
11772;DHT22;12556;55.748;13.194;2022-08-14T06:15:28;21.10;99.90
11772;DHT22;12556;55.748;13.194;2022-08-14T06:17:54;21.20;99.90
11772;DHT22;12556;55.748;13.194;2022-08-14T06:20:22;21.40;99.90
11772;DHT22;12556;55.748;13.194;2022-08-14T06:22:49;21.50;99.90
11772;DHT22;12556;55.748;13.194;2022-08-14T06:25:16;21.70;99.90
11772;DHT22;12556;55.748;13.194;2022-08-14T06:27:45;21.90;99.90
11772;DHT22;12556;55.748;13.194;2022-08-14T06:30:13;22.00;99.90
11772;DHT22;12556;55.748;13.194;2022-08-14T06:32:42;22.20;99.90
11772;DHT22;12556;55.748;13.194;2022-08-14T06:35:09;22.30;99.90
11772;DHT22;12556;55.748;13.194;2022-08-14T06:37:41;22.40;99.90
11772;DHT22;12556;55.748;13.194;2022-08-14T06:40:09;22.60;99.90
11772;DHT22;12556;55.748;13.194;2022-08-14T06:42:37;22.80;99.90
11772;DHT22;12556;55.748;13.194;2022-08-14T06:45:04;23.00;99.90
11772;DHT22;12556;55.748;13.194;2022-08-14T06:47:33;23.10;99.90
11772;DHT22;12556;55.748;13.194;2022-08-14T06:50:02;23.30;99.90
11772;DHT22;12556;55.748;13.194;2022-08-14T06:52:29;23.50;99.90
11772;DHT22;12556;55.748;13.194;2022-08-14T06:54:56;23.70;99.90
11772;DHT22;12556;55.748;13.194;2022-08-14T06:57:25;23.80;99.90
11772;DHT22;12556;55.748;13.194;2022-08-14T06:59:52;24.00;99.90
11772;DHT22;12556;55.748;13.194;2022-08-14T07:02:18;24.20;99.60
11772;DHT22;12556;55.748;13.194;2022-08-14T07:05:04;24.30;99.20
11772;DHT22;12556;55.748;13.194;2022-08-14T07:07:49;24.60;98.60
11772;DHT22;12556;55.748;13.194;2022-08-14T07:10:17;24.70;97.90
11772;DHT22;12556;55.748;13.194;2022-08-14T07:12:46;25.00;97.50
11772;DHT22;12556;55.748;13.194;2022-08-14T07:15:13;25.20;96.70
11772;DHT22;12556;55.748;13.194;2022-08-14T07:17:44;25.40;96.10
11772;DHT22;12556;55.748;13.194;2022-08-14T07:20:13;25.60;95.30
11772;DHT22;12556;55.748;13.194;2022-08-14T07:22:40;25.70;94.30
11772;DHT22;12556;55.748;13.194;2022-08-14T07:25:08;25.80;93.60
11772;DHT22;12556;55.748;13.194;2022-08-14T07:27:37;25.90;93.40
11772;DHT22;12556;55.748;13.194;2022-08-14T07:30:05;26.10;93.10
11772;DHT22;12556;55.748;13.194;2022-08-14T07:32:32;26.20;92.70
11772;DHT22;12556;55.748;13.194;2022-08-14T07:34:59;26.30;92.00
11772;DHT22;12556;55.748;13.194;2022-08-14T07:37:27;26.40;92.00
11772;DHT22;12556;55.748;13.194;2022-08-14T07:39:54;26.50;91.80
11772;DHT22;12556;55.748;13.194;2022-08-14T07:42:21;26.70;91.80
11772;DHT22;12556;55.748;13.194;2022-08-14T07:44:48;26.90;91.60
11772;DHT22;12556;55.748;13.194;2022-08-14T07:47:15;27.00;91.20
11772;DHT22;12556;55.748;13.194;2022-08-14T07:49:45;27.10;90.60
11772;DHT22;12556;55.748;13.194;2022-08-14T07:52:17;27.30;90.50
11772;DHT22;12556;55.748;13.194;2022-08-14T07:54:45;27.40;89.60
11772;DHT22;12556;55.748;13.194;2022-08-14T07:57:12;27.50;89.10
11772;DHT22;12556;55.748;13.194;2022-08-14T07:59:41;27.70;88.90
11772;DHT22;12556;55.748;13.194;2022-08-14T08:02:09;27.80;89.00
11772;DHT22;12556;55.748;13.194;2022-08-14T08:04:39;28.00;88.30
11772;DHT22;12556;55.748;13.194;2022-08-14T08:07:07;28.10;87.80
11772;DHT22;12556;55.748;13.194;2022-08-14T08:09:35;28.20;87.40
11772;DHT22;12556;55.748;13.194;2022-08-14T08:12:04;28.30;86.40
11772;DHT22;12556;55.748;13.194;2022-08-14T08:14:32;28.40;85.50
11772;DHT22;12556;55.748;13.194;2022-08-14T08:16:59;28.50;84.80
11772;DHT22;12556;55.748;13.194;2022-08-14T08:19:26;28.60;84.10
11772;DHT22;12556;55.748;13.194;2022-08-14T08:21:53;28.70;82.60
11772;DHT22;12556;55.748;13.194;2022-08-14T08:24:21;28.80;81.60
11772;DHT22;12556;55.748;13.194;2022-08-14T08:26:47;28.90;81.00
11772;DHT22;12556;55.748;13.194;2022-08-14T08:29:20;29.00;81.00
11772;DHT22;12556;55.748;13.194;2022-08-14T08:31:48;29.10;80.50
11772;DHT22;12556;55.748;13.194;2022-08-14T08:34:16;29.20;79.30
11772;DHT22;12556;55.748;13.194;2022-08-14T08:36:43;29.20;79.20
11772;DHT22;12556;55.748;13.194;2022-08-14T08:39:11;29.30;78.70
11772;DHT22;12556;55.748;13.194;2022-08-14T08:41:40;29.30;77.80
11772;DHT22;12556;55.748;13.194;2022-08-14T08:44:07;29.40;77.40
11772;DHT22;12556;55.748;13.194;2022-08-14T08:46:35;29.30;77.00
11772;DHT22;12556;55.748;13.194;2022-08-14T08:49:02;29.40;76.00
11772;DHT22;12556;55.748;13.194;2022-08-14T08:51:31;29.40;75.40
11772;DHT22;12556;55.748;13.194;2022-08-14T08:54:00;29.30;74.50
11772;DHT22;12556;55.748;13.194;2022-08-14T08:56:40;29.30;75.10
11772;DHT22;12556;55.748;13.194;2022-08-14T08:59:18;29.50;74.00
11772;DHT22;12556;55.748;13.194;2022-08-14T09:01:52;29.60;73.70
11772;DHT22;12556;55.748;13.194;2022-08-14T09:04:21;29.60;71.80
11772;DHT22;12556;55.748;13.194;2022-08-14T09:06:48;29.70;72.50
11772;DHT22;12556;55.748;13.194;2022-08-14T09:09:20;29.90;72.30
11772;DHT22;12556;55.748;13.194;2022-08-14T09:11:47;30.10;71.50
11772;DHT22;12556;55.748;13.194;2022-08-14T09:14:15;30.40;71.00
11772;DHT22;12556;55.748;13.194;2022-08-14T09:16:42;30.40;68.20
11772;DHT22;12556;55.748;13.194;2022-08-14T09:19:10;30.30;67.90
11772;DHT22;12556;55.748;13.194;2022-08-14T09:21:38;30.40;68.00
11772;DHT22;12556;55.748;13.194;2022-08-14T09:24:06;30.50;67.80
11772;DHT22;12556;55.748;13.194;2022-08-14T09:26:33;30.60;67.90
11772;DHT22;12556;55.748;13.194;2022-08-14T09:29:00;30.60;67.00
11772;DHT22;12556;55.748;13.194;2022-08-14T09:31:28;30.60;66.90
11772;DHT22;12556;55.748;13.194;2022-08-14T09:34:02;30.80;66.70
11772;DHT22;12556;55.748;13.194;2022-08-14T09:36:39;30.90;66.60
11772;DHT22;12556;55.748;13.194;2022-08-14T09:39:16;31.00;66.10
11772;DHT22;12556;55.748;13.194;2022-08-14T09:42:02;30.90;65.50
11772;DHT22;12556;55.748;13.194;2022-08-14T09:44:43;30.90;64.90
11772;DHT22;12556;55.748;13.194;2022-08-14T09:47:12;31.00;64.90
11772;DHT22;12556;55.748;13.194;2022-08-14T09:49:40;30.90;64.10
11772;DHT22;12556;55.748;13.194;2022-08-14T09:52:10;31.00;63.80
11772;DHT22;12556;55.748;13.194;2022-08-14T09:54:39;31.00;64.10
11772;DHT22;12556;55.748;13.194;2022-08-14T09:57:08;31.10;63.50
11772;DHT22;12556;55.748;13.194;2022-08-14T09:59:43;31.20;62.70
11772;DHT22;12556;55.748;13.194;2022-08-14T10:02:21;31.20;62.10
11772;DHT22;12556;55.748;13.194;2022-08-14T10:05:02;31.20;62.00
11772;DHT22;12556;55.748;13.194;2022-08-14T10:07:34;31.30;61.40
11772;DHT22;12556;55.748;13.194;2022-08-14T10:10:03;31.30;61.50
11772;DHT22;12556;55.748;13.194;2022-08-14T10:12:44;31.30;61.60
11772;DHT22;12556;55.748;13.194;2022-08-14T10:15:15;31.30;62.40
11772;DHT22;12556;55.748;13.194;2022-08-14T10:17:42;31.20;61.90
11772;DHT22;12556;55.748;13.194;2022-08-14T10:20:09;31.20;61.30
11772;DHT22;12556;55.748;13.194;2022-08-14T10:22:39;31.30;60.80
11772;DHT22;12556;55.748;13.194;2022-08-14T10:25:11;31.30;60.80
11772;DHT22;12556;55.748;13.194;2022-08-14T10:27:40;31.40;61.40
11772;DHT22;12556;55.748;13.194;2022-08-14T10:30:12;31.50;60.60
11772;DHT22;12556;55.748;13.194;2022-08-14T10:32:43;31.60;59.90
11772;DHT22;12556;55.748;13.194;2022-08-14T10:35:11;31.70;60.10
11772;DHT22;12556;55.748;13.194;2022-08-14T10:37:43;31.70;60.40
11772;DHT22;12556;55.748;13.194;2022-08-14T10:40:13;31.90;61.40
11772;DHT22;12556;55.748;13.194;2022-08-14T10:42:41;32.00;59.50
11772;DHT22;12556;55.748;13.194;2022-08-14T10:45:18;32.10;58.80
11772;DHT22;12556;55.748;13.194;2022-08-14T10:47:46;32.10;59.20
11772;DHT22;12556;55.748;13.194;2022-08-14T10:50:14;32.00;59.70
11772;DHT22;12556;55.748;13.194;2022-08-14T10:52:43;32.20;59.70
11772;DHT22;12556;55.748;13.194;2022-08-14T10:55:13;32.40;59.10
11772;DHT22;12556;55.748;13.194;2022-08-14T10:57:48;32.50;59.00
11772;DHT22;12556;55.748;13.194;2022-08-14T11:00:17;32.60;58.90
11772;DHT22;12556;55.748;13.194;2022-08-14T11:02:54;32.70;59.00
11772;DHT22;12556;55.748;13.194;2022-08-14T11:05:24;32.70;59.40
11772;DHT22;12556;55.748;13.194;2022-08-14T11:07:57;32.70;58.10
11772;DHT22;12556;55.748;13.194;2022-08-14T11:10:38;32.60;58.20
11772;DHT22;12556;55.748;13.194;2022-08-14T11:13:06;32.60;57.90
11772;DHT22;12556;55.748;13.194;2022-08-14T11:15:33;32.60;57.70
11772;DHT22;12556;55.748;13.194;2022-08-14T11:18:01;32.70;57.80
11772;DHT22;12556;55.748;13.194;2022-08-14T11:20:30;32.70;57.80
11772;DHT22;12556;55.748;13.194;2022-08-14T11:22:59;32.70;57.30
11772;DHT22;12556;55.748;13.194;2022-08-14T11:25:29;32.80;57.60
11772;DHT22;12556;55.748;13.194;2022-08-14T11:27:58;33.00;58.10
11772;DHT22;12556;55.748;13.194;2022-08-14T11:30:27;33.10;57.30
11772;DHT22;12556;55.748;13.194;2022-08-14T11:32:56;33.10;56.50
11772;DHT22;12556;55.748;13.194;2022-08-14T11:35:26;33.00;56.30
11772;DHT22;12556;55.748;13.194;2022-08-14T11:37:55;32.90;56.00
11772;DHT22;12556;55.748;13.194;2022-08-14T11:40:26;33.00;56.10
11772;DHT22;12556;55.748;13.194;2022-08-14T11:42:54;33.10;56.70
11772;DHT22;12556;55.748;13.194;2022-08-14T11:45:22;33.10;56.80
11772;DHT22;12556;55.748;13.194;2022-08-14T11:47:50;33.20;57.20
11772;DHT22;12556;55.748;13.194;2022-08-14T11:50:19;33.20;56.80
11772;DHT22;12556;55.748;13.194;2022-08-14T11:52:47;33.30;56.60
11772;DHT22;12556;55.748;13.194;2022-08-14T11:55:14;33.30;55.90
11772;DHT22;12556;55.748;13.194;2022-08-14T11:57:44;33.40;55.30
11772;DHT22;12556;55.748;13.194;2022-08-14T12:00:13;33.50;54.70
11772;DHT22;12556;55.748;13.194;2022-08-14T12:02:53;33.50;55.20
11772;DHT22;12556;55.748;13.194;2022-08-14T12:05:31;33.60;55.70
11772;DHT22;12556;55.748;13.194;2022-08-14T12:07:59;33.80;53.80
11772;DHT22;12556;55.748;13.194;2022-08-14T12:10:27;33.80;54.50
11772;DHT22;12556;55.748;13.194;2022-08-14T12:12:57;33.80;53.70
11772;DHT22;12556;55.748;13.194;2022-08-14T12:15:32;33.90;53.00
11772;DHT22;12556;55.748;13.194;2022-08-14T12:18:00;34.00;53.10
11772;DHT22;12556;55.748;13.194;2022-08-14T12:20:29;34.00;53.00
11772;DHT22;12556;55.748;13.194;2022-08-14T12:22:58;34.10;53.30
11772;DHT22;12556;55.748;13.194;2022-08-14T12:25:26;34.30;53.50
11772;DHT22;12556;55.748;13.194;2022-08-14T12:27:55;34.30;53.00
11772;DHT22;12556;55.748;13.194;2022-08-14T12:30:29;34.40;53.10
11772;DHT22;12556;55.748;13.194;2022-08-14T12:32:57;34.50;52.00
11772;DHT22;12556;55.748;13.194;2022-08-14T12:35:35;34.60;52.00
11772;DHT22;12556;55.748;13.194;2022-08-14T12:38:02;34.60;52.00
11772;DHT22;12556;55.748;13.194;2022-08-14T12:40:30;34.60;52.10
11772;DHT22;12556;55.748;13.194;2022-08-14T12:42:59;34.60;52.00
11772;DHT22;12556;55.748;13.194;2022-08-14T12:45:33;34.60;51.70
11772;DHT22;12556;55.748;13.194;2022-08-14T12:48:03;34.60;51.30
11772;DHT22;12556;55.748;13.194;2022-08-14T12:50:38;34.80;51.80
11772;DHT22;12556;55.748;13.194;2022-08-14T12:53:06;34.90;51.80
11772;DHT22;12556;55.748;13.194;2022-08-14T12:55:34;35.00;51.60
11772;DHT22;12556;55.748;13.194;2022-08-14T12:58:02;35.20;51.80
11772;DHT22;12556;55.748;13.194;2022-08-14T13:00:33;35.30;51.40
11772;DHT22;12556;55.748;13.194;2022-08-14T13:03:01;35.40;51.20
11772;DHT22;12556;55.748;13.194;2022-08-14T13:05:31;35.20;51.60
11772;DHT22;12556;55.748;13.194;2022-08-14T13:08:03;35.20;51.20
11772;DHT22;12556;55.748;13.194;2022-08-14T13:10:31;35.20;50.70
11772;DHT22;12556;55.748;13.194;2022-08-14T13:12:58;35.10;50.90
11772;DHT22;12556;55.748;13.194;2022-08-14T13:15:25;35.10;51.20
11772;DHT22;12556;55.748;13.194;2022-08-14T13:17:55;35.10;51.10
11772;DHT22;12556;55.748;13.194;2022-08-14T13:20:23;35.00;50.20
11772;DHT22;12556;55.748;13.194;2022-08-14T13:22:51;34.90;50.30
11772;DHT22;12556;55.748;13.194;2022-08-14T13:25:20;34.90;50.70
11772;DHT22;12556;55.748;13.194;2022-08-14T13:27:52;34.90;50.30
11772;DHT22;12556;55.748;13.194;2022-08-14T13:30:22;34.90;50.70
11772;DHT22;12556;55.748;13.194;2022-08-14T13:32:51;34.80;51.40
11772;DHT22;12556;55.748;13.194;2022-08-14T13:35:20;34.60;51.50
11772;DHT22;12556;55.748;13.194;2022-08-14T13:37:47;34.40;51.40
11772;DHT22;12556;55.748;13.194;2022-08-14T13:40:16;34.50;51.40
11772;DHT22;12556;55.748;13.194;2022-08-14T13:42:45;34.70;51.10
11772;DHT22;12556;55.748;13.194;2022-08-14T13:45:12;34.90;50.90
11772;DHT22;12556;55.748;13.194;2022-08-14T13:47:41;34.80;50.40
11772;DHT22;12556;55.748;13.194;2022-08-14T13:50:10;34.60;50.90
11772;DHT22;12556;55.748;13.194;2022-08-14T13:52:42;34.50;51.30
11772;DHT22;12556;55.748;13.194;2022-08-14T13:55:10;34.40;51.40
11772;DHT22;12556;55.748;13.194;2022-08-14T13:57:39;34.40;51.40
11772;DHT22;12556;55.748;13.194;2022-08-14T14:00:09;34.50;51.10
11772;DHT22;12556;55.748;13.194;2022-08-14T14:02:37;34.30;51.20
11772;DHT22;12556;55.748;13.194;2022-08-14T14:05:05;34.00;51.50
11772;DHT22;12556;55.748;13.194;2022-08-14T14:07:34;34.00;51.70
11772;DHT22;12556;55.748;13.194;2022-08-14T14:10:06;34.10;51.50
11772;DHT22;12556;55.748;13.194;2022-08-14T14:12:35;34.00;52.20
11772;DHT22;12556;55.748;13.194;2022-08-14T14:15:04;33.70;52.90
11772;DHT22;12556;55.748;13.194;2022-08-14T14:17:34;33.50;53.60
11772;DHT22;12556;55.748;13.194;2022-08-14T14:20:03;33.50;53.60
11772;DHT22;12556;55.748;13.194;2022-08-14T14:22:30;33.40;53.30
11772;DHT22;12556;55.748;13.194;2022-08-14T14:24:57;33.40;53.20
11772;DHT22;12556;55.748;13.194;2022-08-14T14:27:26;33.30;53.40
11772;DHT22;12556;55.748;13.194;2022-08-14T14:29:57;33.30;53.70
11772;DHT22;12556;55.748;13.194;2022-08-14T14:32:27;33.30;53.90
11772;DHT22;12556;55.748;13.194;2022-08-14T14:34:58;33.10;53.90
11772;DHT22;12556;55.748;13.194;2022-08-14T14:37:27;33.20;53.90
11772;DHT22;12556;55.748;13.194;2022-08-14T14:39:55;33.10;54.10
11772;DHT22;12556;55.748;13.194;2022-08-14T14:42:26;33.10;54.30
11772;DHT22;12556;55.748;13.194;2022-08-14T14:44:58;33.10;54.00
11772;DHT22;12556;55.748;13.194;2022-08-14T14:47:27;33.00;54.00
11772;DHT22;12556;55.748;13.194;2022-08-14T14:49:55;32.90;54.20
11772;DHT22;12556;55.748;13.194;2022-08-14T14:52:22;32.70;54.70
11772;DHT22;12556;55.748;13.194;2022-08-14T14:54:50;32.70;54.80
11772;DHT22;12556;55.748;13.194;2022-08-14T14:57:17;32.80;54.80
11772;DHT22;12556;55.748;13.194;2022-08-14T14:59:46;33.00;55.20
11772;DHT22;12556;55.748;13.194;2022-08-14T15:02:25;32.80;54.60
11772;DHT22;12556;55.748;13.194;2022-08-14T15:04:58;32.70;54.50
11772;DHT22;12556;55.748;13.194;2022-08-14T15:07:25;32.50;55.20
11772;DHT22;12556;55.748;13.194;2022-08-14T15:09:52;32.40;55.40
11772;DHT22;12556;55.748;13.194;2022-08-14T15:12:19;32.40;55.60
11772;DHT22;12556;55.748;13.194;2022-08-14T15:14:47;32.30;56.30
11772;DHT22;12556;55.748;13.194;2022-08-14T15:17:14;32.20;55.70
11772;DHT22;12556;55.748;13.194;2022-08-14T15:19:41;32.00;55.70
11772;DHT22;12556;55.748;13.194;2022-08-14T15:22:09;31.90;55.90
11772;DHT22;12556;55.748;13.194;2022-08-14T15:24:37;31.80;56.30
11772;DHT22;12556;55.748;13.194;2022-08-14T15:27:04;31.70;56.50